Flight Track Log - Related Links

Times and Time Zones

All times are in EDT time to prevent confusion due to time zone crossing. See the AFR1048 flight status page for this flight to view local times or setup timezone preferences in your user account.

Time Position Orientation Groundspeed Altitude Reporting Facility
EDT Latitude Longitude Course Direction KTS MPH feet Rate Location/Type
Sun 11:03:00 AM 47.7521 2.4636 183° South  Level Estimated
Sun 11:04:00 AM 47.6779 2.4587 183° South  Level Estimated
Sun 11:05:00 AM 47.6038 2.4538 183° South  Level Estimated
Sun 11:06:00 AM 47.5296 2.4488 183° South  Level Estimated
Sun 11:07:00 AM 47.4554 2.4439 183° South  Level Estimated
Sun 11:08:00 AM 47.3813 2.4390 183° South  Level Estimated
Sun 11:09:00 AM 47.3071 2.4342 183° South  Level Estimated
Sun 11:10:00 AM 47.2330 2.4293 183° South  Level Estimated
Sun 11:11:00 AM 47.1588 2.4244 183° South  Level Estimated
Sun 11:12:00 AM 47.0846 2.4196 183° South  Level Estimated
Sun 11:13:00 AM 47.0105 2.4148 183° South  Level Estimated
Sun 11:14:00 AM 46.9363 2.4100 183° South  Level Estimated
Sun 11:15:00 AM 46.8622 2.4052 183° South  Level Estimated
Sun 11:16:00 AM 46.7880 2.4004 183° South  Level Estimated
Sun 11:17:00 AM 46.7138 2.3956 183° South  Level Estimated
Sun 11:18:00 AM 46.6397 2.3908 183° South  Level Estimated
Sun 11:19:00 AM 46.5655 2.3861 183° South  Level Estimated
Sun 11:20:00 AM 46.4914 2.3814 183° South  Level Estimated
Sun 11:21:00 AM 46.3950 2.3752 183° South  Level Estimated
Sun 11:22:00 AM 46.2985 2.3691 183° South  Level Estimated
Sun 11:23:00 AM 46.2021 2.3630 183° South  Level Estimated
Sun 11:24:00 AM 46.1057 2.3570 182° South  Level Estimated
Sun 11:25:00 AM 46.0093 2.3509 182° South  Level Estimated
Sun 11:26:00 AM 45.9129 2.3449 182° South  Level Estimated
Sun 11:27:00 AM 45.8165 2.3389 182° South  Level Estimated
Sun 11:28:00 AM 45.7201 2.3329 182° South  Level Estimated
Sun 11:29:00 AM 45.6237 2.3269 182° South  Level Estimated
Sun 11:30:00 AM 45.5273 2.3210 182° South  Level Estimated
Sun 11:31:00 AM 45.4308 2.3151 182° South  Level Estimated
Sun 11:32:00 AM 45.3344 2.3092 182° South  Level Estimated
Sun 11:33:00 AM 45.2380 2.3033 182° South  Level Estimated
Sun 11:34:00 AM 45.1416 2.2974 182° South  Level Estimated
Sun 11:35:00 AM 45.0452 2.2916 182° South  Level Estimated
Sun 11:36:00 AM 44.9487 2.2858 182° South  Level Estimated
Sun 11:37:00 AM 44.8523 2.2800 182° South  Level Estimated
Sun 11:38:00 AM 44.7559 2.2742 182° South  Level Estimated
Sun 11:39:00 AM 44.6595 2.2684 182° South  Level Estimated
Sun 11:40:00 AM 44.5631 2.2627 182° South  Level Estimated
Sun 11:41:00 AM 44.4666 2.2569 182° South  Level Estimated
Sun 11:42:00 AM 44.3702 2.2512 182° South  Level Estimated
Sun 11:43:00 AM 44.2738 2.2455 182° South  Level Estimated
Sun 11:44:00 AM 44.1774 2.2399 182° South  Level Estimated
Sun 11:45:00 AM 44.0810 2.2342 182° South  Level Estimated
Sun 11:46:00 AM 43.9845 2.2286 182° South  Level Estimated
Sun 11:47:00 AM 43.8881 2.2229 182° South  Level Estimated
Sun 11:48:00 AM 43.7917 2.2174 182° South  Level Estimated
Sun 11:49:00 AM 43.6953 2.2118 182° South  Level Estimated
Sun 11:50:00 AM 43.5989 2.2062 182° South  Level Estimated
Sun 11:51:00 AM 43.5024 2.2007 182° South  Level Estimated
Sun 11:52:00 AM 43.4060 2.1951 182° South  Level Estimated
Sun 11:53:00 AM 43.3096 2.1896 182° South  Level Estimated
Sun 11:54:00 AM 43.2132 2.1841 182° South  Level Estimated
Sun 11:55:00 AM 43.1168 2.1787 182° South  Level Estimated
Sun 11:56:00 AM 43.0203 2.1732 182° South  Level Estimated
Sun 11:57:00 AM 42.9239 2.1678 182° South  Level Estimated
Sun 11:58:00 AM 42.8275 2.1623 182° South  Level Estimated
Sun 11:59:00 AM 42.7311 2.1569 182° South  Level Estimated
Sun 12:00:00 PM 42.6347 2.1516 182° South  Level Estimated
Sun 12:01:00 PM 42.5382 2.1462 182° South  Level Estimated
Sun 12:02:00 PM 42.4418 2.1408 182° South  Level Estimated
Sun 12:03:00 PM 42.3454 2.1355 182° South  Level Estimated
Sun 12:04:00 PM 42.2490 2.1302 182° South  Level Estimated
Sun 12:05:00 PM 42.1526 2.1249 182° South  Level Estimated
Sun 12:06:00 PM 42.0561 2.1196 182° South  Level Estimated
Sun 12:07:00 PM 41.9597 2.1143 182° South  Level Estimated
Sun 12:08:00 PM 41.8633 2.1090 182° South  Level Estimated
Sun 12:09:00 PM 41.7668 2.1038 182° South  Level Estimated
Sun 12:10:00 PM 41.6704 2.0986 182° South  Level Estimated
Sun 12:11:00 PM 41.5740 2.0933 182° South  Level Estimated
Sun 12:12:00 PM 41.4776 2.0882 182° South  Level Estimated
Sun 12:13:00 PM 41.3811 2.0830 182° South  Level Estimated
Sun 12:14:00 PM 41.2971 2.0785 182° South  Level Estimated
Sun 12:15:00 PM 41.2971 2.0785 124° Southeast  Level Estimated
Sun 12:16:00 PM 41.2971 2.0785 124° Southeast  Level Estimated
Sun 12:17:00 PM 41.2971 2.0785 124° Southeast  Level Estimated
Sun 12:18:00 PM 41.2971 2.0785 124° Southeast  Level Estimated
Sun 12:19:00 PM 41.2971 2.0785 124° Southeast  Level Estimated
Sun 12:20:00 PM 41.2971 2.0785 124° Southeast  Level Estimated
Sun 12:21:00 PM 41.2971 2.0785 124° Southeast  Level Estimated

Login

Don't have an account? Register now (free) for customized features, flight alerts, and more!